Time;durP1;ratioP1;P1;durP2;ratioP2;P2;SDS_P1;SDS_P2;PMS_P1;PMS_P2;Temp;Humidity;BMP_temperature;BMP_pressure;BME280_temperature;BME280_humidity;BME280_pressure;Samples;Min_cycle;Max_cycle;Signal;HPM_P1;HPM_P2
2022/02/14 00:00:09;;;;;;;87.17;43.02;;;;;;;-2.45;71.17;102404.30;1786066;77;20895;-74
2022/02/14 00:02:39;;;;;;;83.58;42.67;;;;;;;-2.45;71.21;102409.86;1791407;77;21731;-74
2022/02/14 00:05:07;;;;;;;84.72;41.58;;;;;;;-2.48;71.03;102399.53;1800056;77;21383;-75
2022/02/14 00:07:34;;;;;;;84.90;41.58;;;;;;;-2.54;70.91;102402.38;1800103;77;20895;-75
2022/02/14 00:10:04;;;;;;;76.50;39.20;;;;;;;-2.57;70.93;102402.75;1788471;77;20972;-75
2022/02/14 00:12:32;;;;;;;82.37;41.40;;;;;;;-2.63;70.90;102403.47;1788562;77;20906;-76
2022/02/14 00:15:02;;;;;;;80.90;42.48;;;;;;;-2.68;70.82;102399.07;1800162;78;21538;-75
2022/02/14 00:17:30;;;;;;;74.15;39.78;;;;;;;-2.71;70.86;102397.30;1793768;77;21400;-76
2022/02/14 00:19:57;;;;;;;74.75;39.15;;;;;;;-2.77;70.88;102389.45;1808782;78;20884;-75
2022/02/14 00:22:23;;;;;;;80.92;43.35;;;;;;;-2.84;70.98;102391.00;1801497;77;20905;-74
2022/02/14 00:24:51;;;;;;;86.08;44.05;;;;;;;-2.92;70.98;102384.38;1776760;79;20962;-74
2022/02/14 00:27:18;;;;;;;93.40;46.25;;;;;;;-2.98;71.12;102388.50;1771979;79;21116;-75
2022/02/14 00:29:46;;;;;;;91.30;46.80;;;;;;;-3.01;71.20;102391.00;1738768;80;20932;-75
2022/02/14 00:32:13;;;;;;;82.30;44.48;;;;;;;-3.03;71.24;102383.68;1779588;80;20943;-73
2022/02/14 00:34:41;;;;;;;79.70;43.17;;;;;;;-3.05;71.36;102382.35;1780156;79;20986;-75
2022/02/14 00:37:08;;;;;;;92.53;45.65;;;;;;;-3.07;71.45;102374.17;1798938;77;20892;-75
2022/02/14 00:39:35;;;;;;;87.02;44.23;;;;;;;-3.11;71.56;102371.96;1810627;79;21009;-74
2022/02/14 00:42:02;;;;;;;85.22;41.88;;;;;;;-3.15;71.57;102363.73;1810275;77;20857;-76
2022/02/14 00:44:29;;;;;;;82.25;43.00;;;;;;;-3.18;71.66;102370.05;1809493;77;20920;-74
2022/02/14 00:46:57;;;;;;;80.75;41.00;;;;;;;-3.20;71.86;102370.42;1782842;78;20884;-74
2022/02/14 00:49:25;;;;;;;71.28;37.15;;;;;;;-3.20;71.89;102358.87;1814778;77;20903;-75
2022/02/14 00:51:52;;;;;;;83.33;41.55;;;;;;;-3.22;71.89;102355.44;1795521;77;21496;-74
2022/02/14 00:54:19;;;;;;;86.95;42.62;;;;;;;-3.22;72.03;102356.30;1798193;77;21445;-75
2022/02/14 00:56:47;;;;;;;80.65;38.17;;;;;;;-3.22;72.38;102354.16;1775709;80;20931;-74
2022/02/14 00:59:14;;;;;;;72.78;37.73;;;;;;;-3.20;72.44;102357.59;1765462;80;20947;-74
2022/02/14 01:01:41;;;;;;;82.75;39.98;;;;;;;-3.22;72.39;102353.73;1735046;80;21485;-75
2022/02/14 01:04:09;;;;;;;75.92;40.00;;;;;;;-3.23;72.62;102360.09;1744070;80;21119;-74
2022/02/14 01:06:36;;;;;;;94.90;43.98;;;;;;;-3.23;72.78;102356.25;1806839;77;20916;-75
2022/02/14 01:09:03;;;;;;;74.00;41.15;;;;;;;-3.26;72.94;102351.05;1792020;77;20930;-74
2022/02/14 01:11:30;;;;;;;82.85;41.40;;;;;;;-3.27;73.16;102346.31;1782628;80;20986;-73
2022/02/14 01:13:57;;;;;;;74.17;38.40;;;;;;;-3.24;73.37;102348.11;1779525;79;20895;-74
2022/02/14 01:16:24;;;;;;;81.50;41.77;;;;;;;-3.22;73.37;102348.59;1771838;80;21417;-74
2022/02/14 01:18:51;;;;;;;82.60;41.80;;;;;;;-3.21;73.39;102343.05;1718724;80;20924;-74
2022/02/14 01:21:18;;;;;;;86.02;44.90;;;;;;;-3.22;73.32;102342.61;1784176;80;21021;-74
2022/02/14 01:23:44;;;;;;;93.85;44.15;;;;;;;-3.21;73.25;102345.61;1782772;80;20947;-74
2022/02/14 01:26:13;;;;;;;99.28;49.00;;;;;;;-3.22;73.17;102347.31;1785913;80;20887;-76
2022/02/14 01:28:41;;;;;;;98.00;49.95;;;;;;;-3.24;73.03;102342.98;1778936;79;21536;-76
2022/02/14 01:31:07;;;;;;;108.80;50.70;;;;;;;-3.28;72.94;102339.46;1781920;80;20907;-78
2022/02/14 01:33:35;;;;;;;121.15;55.60;;;;;;;-3.30;72.80;102341.54;1777168;80;21410;-74
2022/02/14 01:36:02;;;;;;;113.60;53.23;;;;;;;-3.35;72.74;102343.57;1782010;80;21083;-75
2022/02/14 01:38:29;;;;;;;106.22;50.10;;;;;;;-3.41;72.63;102341.27;1778784;80;20911;-75
2022/02/14 01:40:56;;;;;;;113.17;53.45;;;;;;;-3.44;72.58;102336.94;1782211;80;21133;-75
2022/02/14 01:43:23;;;;;;;113.22;55.20;;;;;;;-3.47;72.83;102345.81;1782676;80;20895;-75
2022/02/14 01:45:50;;;;;;;109.72;53.50;;;;;;;-3.48;72.99;102344.09;1796785;77;20863;-75
2022/02/14 01:48:17;;;;;;;108.22;52.13;;;;;;;-3.48;72.82;102329.13;1797875;78;20936;-75
2022/02/14 01:50:46;;;;;;;99.37;48.90;;;;;;;-3.54;72.98;102336.23;1788781;77;20872;-75
2022/02/14 01:53:12;;;;;;;95.83;46.40;;;;;;;-3.54;73.24;102338.37;1797739;78;21091;-74
2022/02/14 01:55:39;;;;;;;95.15;46.37;;;;;;;-3.56;73.17;102337.50;1812765;79;20842;-74
2022/02/14 01:58:06;;;;;;;101.70;46.77;;;;;;;-3.56;73.28;102331.47;1810458;79;20896;-75
2022/02/14 02:00:33;;;;;;;101.72;46.92;;;;;;;-3.56;73.29;102331.09;1796011;77;21535;-74
2022/02/14 02:03:01;;;;;;;101.05;47.13;;;;;;;-3.58;73.29;102317.36;1795999;77;20923;-75
2022/02/14 02:05:29;;;;;;;98.67;48.90;;;;;;;-3.60;73.23;102321.57;1786207;77;21164;-75
2022/02/14 02:07:57;;;;;;;99.15;48.10;;;;;;;-3.60;73.25;102315.16;1808949;77;20841;-74
2022/02/14 02:10:23;;;;;;;100.10;50.95;;;;;;;-3.60;73.26;102316.84;1799797;78;21444;-75
2022/02/14 02:12:53;;;;;;;105.22;51.60;;;;;;;-3.62;73.30;102304.00;1800576;77;20913;-74
2022/02/14 02:15:20;;;;;;;104.10;51.83;;;;;;;-3.63;73.34;102306.52;1802433;78;20941;-74
2022/02/14 02:17:47;;;;;;;98.97;50.25;;;;;;;-3.66;73.39;102312.44;1807536;77;21790;-75
2022/02/14 02:20:15;;;;;;;90.40;49.35;;;;;;;-3.66;73.40;102300.90;1806432;78;20983;-73
2022/02/14 02:22:43;;;;;;;94.67;49.90;;;;;;;-3.68;73.47;102299.98;1806920;77;20900;-74
2022/02/14 02:25:11;;;;;;;98.67;48.75;;;;;;;-3.67;73.64;102300.84;1776072;79;20927;-75
2022/02/14 02:27:39;;;;;;;92.33;45.55;;;;;;;-3.69;73.67;102294.42;1759726;79;21023;-74
2022/02/14 02:30:07;;;;;;;83.87;41.98;;;;;;;-3.68;73.73;102299.12;1741138;80;22349;-73
2022/02/14 02:32:35;;;;;;;87.72;41.33;;;;;;;-3.69;73.59;102302.11;1740948;80;20896;-75
2022/02/14 02:35:04;;;;;;;80.77;39.55;;;;;;;-3.70;73.51;102308.47;1736036;80;20987;-76
2022/02/14 02:37:30;;;;;;;91.02;39.35;;;;;;;-3.72;73.41;102305.00;1808756;77;20959;-74
2022/02/14 02:39:57;;;;;;;73.90;39.15;;;;;;;-3.75;73.44;102305.80;1810300;79;20865;-75
2022/02/14 02:42:24;;;;;;;82.12;40.08;;;;;;;-3.76;73.47;102309.16;1803753;77;21933;-75
2022/02/14 02:44:52;;;;;;;70.72;37.50;;;;;;;-3.78;73.44;102310.81;1796825;77;20883;-74
2022/02/14 02:47:21;;;;;;;74.32;38.25;;;;;;;-3.81;73.38;102306.91;1780473;77;20986;-77
2022/02/14 02:49:48;;;;;;;73.45;37.48;;;;;;;-3.85;73.63;102302.52;1800233;77;20897;-74
2022/02/14 02:52:16;;;;;;;69.95;36.13;;;;;;;-3.86;73.70;102309.34;1773738;80;20919;-74
2022/02/14 02:54:43;;;;;;;72.42;37.73;;;;;;;-3.90;73.51;102313.94;1771668;81;21118;-74
2022/02/14 02:57:11;;;;;;;76.40;42.15;;;;;;;-3.96;73.54;102306.97;1729345;80;21362;-73
2022/02/14 02:59:38;;;;;;;76.67;43.02;;;;;;;-4.01;73.77;102303.81;1773114;80;21055;-73
2022/02/14 03:02:06;;;;;;;83.33;42.53;;;;;;;-4.03;74.06;102312.72;1804632;77;20888;-74
2022/02/14 03:04:34;;;;;;;82.20;39.03;;;;;;;-4.05;74.35;102317.36;1810119;79;21366;-71
2022/02/14 03:07:00;;;;;;;94.75;41.23;;;;;;;-4.07;74.74;102316.45;1797374;77;21072;-75
2022/02/14 03:09:28;;;;;;;85.53;38.42;;;;;;;-4.03;75.08;102313.14;1793730;77;20947;-74
2022/02/14 03:11:56;;;;;;;77.12;39.70;;;;;;;-3.97;75.33;102312.89;1773191;80;20900;-74
2022/02/14 03:14:23;;;;;;;76.10;40.03;;;;;;;-3.91;75.26;102314.77;1758791;79;20900;-75
2022/02/14 03:16:51;;;;;;;68.75;35.63;;;;;;;-3.89;75.16;102309.28;1728895;80;20935;-72
2022/02/14 03:19:18;;;;;;;62.03;33.25;;;;;;;-3.87;74.92;102310.58;1744700;81;21909;-76
2022/02/14 03:21:44;;;;;;;66.00;34.23;;;;;;;-3.88;74.70;102317.83;1817425;79;20848;-76
2022/02/14 03:24:13;;;;;;;61.75;33.15;;;;;;;-3.87;74.58;102316.98;1808310;77;20872;-76
2022/02/14 03:26:39;;;;;;;64.27;33.88;;;;;;;-3.87;74.60;102308.88;1813533;77;21015;-73
2022/02/14 03:29:06;;;;;;;61.83;33.63;;;;;;;-3.86;74.42;102306.78;1799357;77;20941;-74
2022/02/14 03:31:33;;;;;;;67.55;36.88;;;;;;;-3.85;74.28;102309.79;1799158;77;21695;-76
2022/02/14 03:34:00;;;;;;;65.78;33.35;;;;;;;-3.85;74.21;102304.66;1773657;80;21104;-74
2022/02/14 03:36:27;;;;;;;68.50;34.67;;;;;;;-3.84;74.14;102302.99;1783047;80;20888;-76
2022/02/14 03:38:54;;;;;;;74.20;38.75;;;;;;;-3.84;74.08;102305.13;1782860;80;21503;-74
2022/02/14 03:41:20;;;;;;;70.15;36.65;;;;;;;-3.86;73.96;102300.38;1774100;80;20967;-74
2022/02/14 03:45:12;;;;;;;66.53;36.93;;;;;;;-3.87;73.84;102297.77;1797881;79;22571;-74
2022/02/14 03:47:39;;;;;;;72.67;36.68;;;;;;;-3.92;73.97;102294.22;1758609;80;20972;-74
2022/02/14 03:50:07;;;;;;;64.90;37.23;;;;;;;-3.91;73.88;102298.12;1758364;81;21080;-73
2022/02/14 03:52:34;;;;;;;65.12;34.50;;;;;;;-3.93;73.88;102297.20;1758288;80;20869;-74
2022/02/14 03:55:01;;;;;;;71.33;35.30;;;;;;;-3.91;73.96;102293.38;1758353;80;21414;-73
2022/02/14 03:57:29;;;;;;;68.07;35.83;;;;;;;-3.92;73.72;102293.80;1758300;80;20963;-74
2022/02/14 03:59:56;;;;;;;66.05;33.58;;;;;;;-3.92;73.49;102295.50;1758250;80;21394;-73
2022/02/14 04:02:24;;;;;;;66.85;35.30;;;;;;;-3.94;73.55;102295.45;1758598;80;21536;-75
2022/02/14 04:04:53;;;;;;;70.75;36.50;;;;;;;-3.97;73.50;102288.55;1758312;80;20928;-74
2022/02/14 04:07:20;;;;;;;65.62;35.90;;;;;;;-4.01;73.74;102288.02;1758681;80;21011;-74
2022/02/14 04:09:48;;;;;;;75.45;39.03;;;;;;;-4.02;73.92;102286.30;1758338;80;21442;-74
2022/02/14 04:12:15;;;;;;;71.65;37.42;;;;;;;-4.03;73.80;102290.09;1758435;80;20896;-75
2022/02/14 04:14:42;;;;;;;70.50;37.60;;;;;;;-4.05;73.77;102278.50;1758357;80;21056;-74
2022/02/14 04:17:09;;;;;;;72.08;36.38;;;;;;;-4.07;73.90;102280.58;1758159;80;21075;-75
2022/02/14 04:19:36;;;;;;;72.65;35.63;;;;;;;-4.05;74.00;102280.20;1758410;80;21290;-74
2022/02/14 04:22:03;;;;;;;67.22;34.20;;;;;;;-4.04;73.98;102280.68;1758553;80;20947;-75
2022/02/14 04:24:31;;;;;;;64.53;34.43;;;;;;;-4.04;73.84;102277.70;1758215;81;20979;-75
2022/02/14 04:26:58;;;;;;;61.37;32.10;;;;;;;-4.03;73.83;102284.54;1758372;80;21153;-75
2022/02/14 04:29:26;;;;;;;66.75;34.95;;;;;;;-4.03;73.74;102278.55;1758444;80;20876;-75
2022/02/14 04:31:53;;;;;;;62.73;35.20;;;;;;;-4.06;73.62;102282.33;1758737;81;20940;-74
2022/02/14 04:34:20;;;;;;;65.78;33.67;;;;;;;-4.08;73.70;102282.70;1758332;80;20964;-74
2022/02/14 04:36:50;;;;;;;61.18;33.73;;;;;;;-4.09;73.71;102286.96;1758410;80;21118;-74
2022/02/14 04:39:17;;;;;;;64.75;31.80;;;;;;;-4.09;73.81;102292.09;1757763;80;21162;-75
2022/02/14 04:41:44;;;;;;;56.88;30.95;;;;;;;-4.09;73.67;102295.03;1758428;80;21386;-76
2022/02/14 04:44:11;;;;;;;59.05;30.00;;;;;;;-4.09;73.54;102299.77;1758370;80;20959;-77
2022/02/14 04:46:39;;;;;;;66.90;33.42;;;;;;;-4.09;73.41;102300.16;1758631;81;20971;-75
2022/02/14 04:49:06;;;;;;;54.60;30.25;;;;;;;-4.12;73.31;102298.80;1758758;80;20900;-75
2022/02/14 04:51:33;;;;;;;66.35;31.52;;;;;;;-4.19;73.46;102311.44;1758875;81;21125;-75
2022/02/14 04:54:04;;;;;;;61.02;34.05;;;;;;;-4.25;73.81;102310.40;1758625;80;20877;-74
2022/02/14 04:56:31;;;;;;;64.37;36.48;;;;;;;-4.23;74.07;102310.03;1757975;81;20881;-75
2022/02/14 04:58:57;;;;;;;70.30;34.43;;;;;;;-4.19;73.98;102312.72;1758341;81;20908;-75
2022/02/14 05:01:24;;;;;;;58.52;30.02;;;;;;;-4.17;73.81;102308.50;1758112;81;20891;-76
2022/02/14 05:03:51;;;;;;;66.50;36.60;;;;;;;-4.15;73.71;102305.14;1758247;81;22155;-75
2022/02/14 05:06:18;;;;;;;75.55;36.33;;;;;;;-4.15;73.70;102305.14;1758085;80;20896;-76
2022/02/14 05:08:45;;;;;;;72.72;34.83;;;;;;;-4.15;73.55;102316.66;1741964;81;21402;-76
2022/02/14 05:11:12;;;;;;;70.32;36.63;;;;;;;-4.15;73.42;102322.65;1758618;81;20928;-74
2022/02/14 05:13:41;;;;;;;71.80;35.50;;;;;;;-4.15;73.44;102312.41;1758227;81;21003;-77
2022/02/14 05:16:08;;;;;;;88.55;38.23;;;;;;;-4.15;73.51;102312.41;1758301;80;21146;-75
2022/02/14 05:18:35;;;;;;;66.62;35.60;;;;;;;-4.14;73.59;102315.41;1758614;81;20881;-75
2022/02/14 05:21:02;;;;;;;64.82;33.08;;;;;;;-4.14;73.59;102317.97;1758505;81;21465;-76
2022/02/14 05:23:29;;;;;;;65.57;34.50;;;;;;;-4.14;73.63;102323.09;1761631;79;21003;-76
2022/02/14 05:25:56;;;;;;;94.32;42.90;;;;;;;-4.15;73.85;102321.37;1761607;81;20896;-76
2022/02/14 05:28:23;;;;;;;88.80;45.10;;;;;;;-4.12;74.01;102313.75;1761816;81;21156;-75
2022/02/14 05:30:50;;;;;;;110.17;58.73;;;;;;;-4.08;73.91;102309.59;1761451;81;20979;-76
2022/02/14 05:33:17;;;;;;;110.70;67.70;;;;;;;-4.05;74.00;102320.78;1758520;81;20885;-75
2022/02/14 05:35:44;;;;;;;88.42;46.53;;;;;;;-4.01;74.13;102311.08;1757985;81;20916;-76
2022/02/14 05:38:11;;;;;;;80.90;45.35;;;;;;;-3.96;74.16;102305.69;1758231;81;20948;-76
2022/02/14 05:40:38;;;;;;;106.55;58.83;;;;;;;-3.91;74.15;102308.37;1758167;81;21206;-75
2022/02/14 05:43:06;;;;;;;104.78;52.38;;;;;;;-3.86;74.20;102308.06;1758082;81;21397;-76
2022/02/14 05:45:33;;;;;;;161.35;57.03;;;;;;;-3.82;74.19;102309.89;1757995;81;20963;-75
2022/02/14 05:48:01;;;;;;;92.25;42.78;;;;;;;-3.79;74.10;102311.23;1758015;80;20960;-76
2022/02/14 05:50:28;;;;;;;103.58;43.05;;;;;;;-3.74;74.21;102315.20;1758646;81;21394;-78
2022/02/14 05:52:56;;;;;;;111.70;51.00;;;;;;;-3.60;74.42;102311.31;1758246;81;21688;-84
2022/02/14 05:55:23;;;;;;;96.35;49.77;;;;;;;-3.17;75.16;102323.05;1758723;80;20959;-86
2022/02/14 05:57:50;;;;;;;166.88;55.28;;;;;;;-2.69;75.16;102321.17;1758176;80;20976;-82
2022/02/14 06:00:19;;;;;;;127.00;50.92;;;;;;;-2.13;74.88;102321.91;1758440;81;20940;-81
2022/02/14 06:02:46;;;;;;;86.67;45.10;;;;;;;-1.59;74.01;102319.05;1757936;80;20920;-83
2022/02/14 06:05:13;;;;;;;96.63;45.80;;;;;;;-1.17;72.93;102330.48;1757951;81;21484;-82
2022/02/14 06:07:41;;;;;;;92.42;47.83;;;;;;;-0.71;72.37;102333.77;1757898;81;20944;-82
2022/02/14 06:10:09;;;;;;;84.58;46.40;;;;;;;-0.17;71.76;102331.03;1758204;81;20928;-83
2022/02/14 06:12:37;;;;;;;74.37;43.33;;;;;;;0.25;70.83;102340.97;1757913;80;20896;-84
2022/02/14 06:15:05;;;;;;;109.15;50.00;;;;;;;0.75;70.28;102334.54;1758010;80;21344;-80
2022/02/14 06:17:33;;;;;;;113.68;47.60;;;;;;;1.33;69.27;102337.97;1757907;81;21141;-82
2022/02/14 06:20:00;;;;;;;145.92;49.58;;;;;;;1.98;69.62;102340.02;1741206;81;21667;-80
2022/02/14 06:22:27;;;;;;;110.28;45.35;;;;;;;2.74;67.65;102339.72;1758080;80;20911;-82
2022/02/14 06:24:57;;;;;;;97.60;45.35;;;;;;;3.48;65.28;102344.81;1758754;81;20904;-82
2022/02/14 06:27:23;;;;;;;107.15;44.08;;;;;;;4.17;62.76;102342.37;1758550;80;20980;-82
2022/02/14 06:29:53;;;;;;;81.75;45.35;;;;;;;4.80;59.51;102344.53;1758228;81;21148;-81
2022/02/14 06:32:19;;;;;;;100.95;43.85;;;;;;;5.36;57.61;102348.36;1758157;80;20999;-83
2022/02/14 06:34:47;;;;;;;97.25;45.67;;;;;;;5.93;56.15;102342.03;1757927;80;20884;-83
2022/02/14 06:37:14;;;;;;;79.15;43.42;;;;;;;6.52;54.31;102346.03;1758180;80;21484;-80
2022/02/14 06:39:40;;;;;;;81.35;46.02;;;;;;;7.03;52.97;102342.61;1757683;80;20971;-81
2022/02/14 06:42:09;;;;;;;82.30;46.18;;;;;;;7.13;51.53;102355.89;1757840;81;20944;-82
2022/02/14 06:44:36;;;;;;;76.82;44.75;;;;;;;6.86;50.69;102349.41;1752840;80;21406;-82
2022/02/14 06:47:04;;;;;;;58.40;35.65;;;;;;;6.42;50.71;102341.41;1744969;80;20944;-81
2022/02/14 06:49:31;;;;;;;68.00;41.05;;;;;;;5.91;50.86;102335.13;1744711;81;21457;-81
2022/02/14 06:51:58;;;;;;;71.57;41.70;;;;;;;5.47;51.59;102345.63;1734371;82;20932;-80
2022/02/14 06:54:25;;;;;;;77.72;44.23;;;;;;;5.04;52.59;102336.96;1744584;80;21327;-80
2022/02/14 06:56:53;;;;;;;74.75;42.43;;;;;;;4.65;53.25;102340.34;1744766;81;20917;-80
2022/02/14 06:59:20;;;;;;;66.37;37.40;;;;;;;4.26;54.09;102338.42;1744665;80;20916;-81
2022/02/14 07:01:54;;;;;;;67.27;38.08;;;;;;;3.97;54.88;102338.14;1744473;81;20889;-81
2022/02/14 07:04:22;;;;;;;64.37;35.90;;;;;;;3.71;55.21;102335.64;1733914;81;21587;-80
2022/02/14 07:06:50;;;;;;;62.43;35.38;;;;;;;3.46;55.50;102334.87;1744614;81;21187;-80
2022/02/14 07:09:18;;;;;;;67.15;35.88;;;;;;;3.27;55.71;102332.33;1744258;81;20933;-81
2022/02/14 07:11:45;;;;;;;56.55;29.75;;;;;;;3.14;56.00;102333.66;1734129;82;20987;-80
2022/02/14 07:14:13;;;;;;;59.23;28.27;;;;;;;3.00;56.41;102332.36;1744798;81;20948;-79
2022/02/14 07:16:43;;;;;;;52.15;27.87;;;;;;;2.88;56.80;102335.39;1745024;81;20909;-84
2022/02/14 07:19:11;;;;;;;49.67;25.10;;;;;;;2.79;56.87;102335.39;1745101;81;20916;-81
2022/02/14 07:21:42;;;;;;;51.35;24.07;;;;;;;2.69;56.87;102333.66;1745147;81;20913;-81
2022/02/14 07:24:09;;;;;;;47.73;22.98;;;;;;;2.60;57.03;102337.12;1745612;81;20859;-81
2022/02/14 07:26:36;;;;;;;49.45;24.23;;;;;;;2.52;57.01;102334.95;1746768;81;20846;-84
2022/02/14 07:29:04;;;;;;;45.38;22.27;;;;;;;2.45;57.48;102334.08;1746597;81;20889;-81
2022/02/14 07:31:33;;;;;;;42.13;24.07;;;;;;;2.39;57.63;102333.21;1745257;81;21095;-84
2022/02/14 07:34:00;;;;;;;44.73;21.37;;;;;;;2.35;57.81;102335.36;1745085;81;20972;-87
2022/02/14 07:36:27;;;;;;;53.90;23.27;;;;;;;2.30;58.06;102335.34;1745120;81;20884;-84
2022/02/14 07:38:58;;;;;;;51.80;23.77;;;;;;;2.26;58.41;102330.58;1744946;80;21130;-82
2022/02/14 07:41:24;;;;;;;46.73;21.00;;;;;;;2.27;58.63;102330.18;1745171;81;21362;-81
2022/02/14 07:43:52;;;;;;;41.05;21.40;;;;;;;2.26;58.00;102331.02;1744796;81;21121;-82
2022/02/14 07:46:19;;;;;;;49.23;20.82;;;;;;;2.25;57.77;102325.42;1744475;80;21062;-82
2022/02/14 07:48:47;;;;;;;49.75;23.60;;;;;;;2.24;57.77;102332.73;1744568;81;20913;-81
2022/02/14 07:51:16;;;;;;;45.85;22.50;;;;;;;2.25;57.96;102325.42;1744659;81;20917;-80
2022/02/14 07:53:44;;;;;;;55.43;23.65;;;;;;;2.24;57.99;102331.45;1745024;81;20893;-82
2022/02/14 07:56:13;;;;;;;54.25;23.32;;;;;;;2.26;58.19;102332.31;1734465;82;21562;-84
2022/02/14 07:58:40;;;;;;;47.50;23.32;;;;;;;2.28;58.21;102339.22;1746090;81;21046;-80
2022/02/14 08:01:10;;;;;;;50.78;22.85;;;;;;;2.33;57.90;102340.96;1745541;81;20889;-79
2022/02/14 08:03:37;;;;;;;44.98;21.35;;;;;;;2.35;57.96;102340.09;1745111;81;20858;-82
2022/02/14 08:06:04;;;;;;;45.28;20.90;;;;;;;2.39;58.10;102335.80;1744979;81;21326;-80
2022/02/14 08:08:32;;;;;;;32.45;17.20;;;;;;;2.42;57.83;102331.91;1745127;81;21112;-83
2022/02/14 08:11:01;;;;;;;44.42;20.95;;;;;;;2.45;58.10;102330.64;1744289;81;21425;-80
2022/02/14 08:13:29;;;;;;;36.30;18.37;;;;;;;2.50;58.30;102330.20;1745022;81;20921;-78
2022/02/14 08:15:55;;;;;;;29.63;14.75;;;;;;;2.54;57.98;102328.05;1744799;81;21378;-72
2022/02/14 08:18:22;;;;;;;22.15;12.88;;;;;;;2.57;57.49;102326.75;1744870;81;20893;-75
2022/02/14 08:20:49;;;;;;;32.55;15.35;;;;;;;2.61;57.06;102326.33;1744614;81;21553;-73
2022/02/14 08:23:17;;;;;;;24.55;13.90;;;;;;;2.64;56.87;102325.03;1767824;80;21306;-79
2022/02/14 08:25:44;;;;;;;31.68;14.28;;;;;;;2.68;56.86;102322.88;1780753;80;20971;-78
2022/02/14 08:28:11;;;;;;;28.65;14.90;;;;;;;2.74;56.89;102315.11;1781139;79;20900;-77
2022/02/14 08:30:38;;;;;;;32.28;15.15;;;;;;;2.77;56.63;102318.13;1781075;80;21361;-80
2022/02/14 08:33:10;;;;;;;24.40;13.83;;;;;;;2.81;56.35;102318.13;1781456;80;21068;-79
2022/02/14 08:35:39;;;;;;;29.82;13.80;;;;;;;2.85;56.16;102325.04;1781399;79;20868;-78
2022/02/14 08:38:07;;;;;;;25.52;12.33;;;;;;;2.88;56.02;102312.51;1780977;80;20880;-77
2022/02/14 08:40:34;;;;;;;24.92;12.25;;;;;;;2.93;55.42;102303.44;1781101;80;20983;-82
2022/02/14 08:43:01;;;;;;;27.55;12.65;;;;;;;2.96;55.32;102308.59;1780678;80;20927;-82
2022/02/14 08:45:30;;;;;;;24.57;14.18;;;;;;;3.01;55.17;102307.74;1743937;82;21146;-81
2022/02/14 08:47:58;;;;;;;27.10;13.00;;;;;;;3.07;55.56;102301.70;1743827;81;21062;-78
2022/02/14 08:50:25;;;;;;;19.25;11.25;;;;;;;3.16;55.61;102303.39;1717763;83;20905;-83
2022/02/14 08:52:52;;;;;;;21.60;10.25;;;;;;;3.41;55.21;102301.62;1781180;80;21449;-75
2022/02/14 08:55:19;;;;;;;17.70;9.48;;;;;;;3.98;52.95;102306.55;1743876;82;20976;-74
2022/02/14 08:57:46;;;;;;;19.15;11.53;;;;;;;4.83;51.68;102297.74;1743907;82;21114;-72
2022/02/14 09:00:14;;;;;;;30.92;14.95;;;;;;;5.78;48.74;102293.65;1717761;83;21462;-74
2022/02/14 09:02:42;;;;;;;30.43;15.65;;;;;;;6.73;47.18;102300.95;1781220;80;21397;-77
2022/02/14 09:05:09;;;;;;;27.67;14.55;;;;;;;7.58;45.21;102282.84;1744850;82;20963;-77
2022/02/14 09:07:36;;;;;;;29.60;16.55;;;;;;;8.41;43.67;102288.00;1744683;81;20892;-75
2022/02/14 09:10:05;;;;;;;31.30;16.90;;;;;;;9.10;42.03;102287.55;1720329;80;21196;-75
2022/02/14 09:12:34;;;;;;;29.40;14.78;;;;;;;9.73;40.97;102287.06;1784189;80;20947;-78
2022/02/14 09:15:01;;;;;;;31.48;15.15;;;;;;;10.34;39.73;102287.84;1781763;79;20966;-78
2022/02/14 09:17:28;;;;;;;34.98;19.40;;;;;;;10.92;38.77;102278.93;1780949;80;21349;-75
2022/02/14 09:19:55;;;;;;;25.35;14.07;;;;;;;11.47;37.44;102274.76;1780881;80;20923;-77
2022/02/14 09:22:22;;;;;;;21.20;13.28;;;;;;;11.87;36.45;102267.52;1780815;80;21118;-76
2022/02/14 09:24:49;;;;;;;22.37;13.45;;;;;;;12.28;35.37;102265.06;1743812;81;20940;-76
2022/02/14 09:27:16;;;;;;;19.62;13.43;;;;;;;12.62;34.24;102262.34;1717601;83;20901;-76
2022/02/14 09:29:45;;;;;;;33.23;13.93;;;;;;;13.31;34.08;102250.61;1781020;79;20912;-76
2022/02/14 09:32:11;;;;;;;21.25;12.58;;;;;;;13.31;34.08;102250.61;1781112;79;21413;-75
2022/02/14 09:34:40;;;;;;;23.20;19.32;;;;;;;13.95;32.09;102250.71;1781049;80;21512;-72
2022/02/14 09:37:07;;;;;;;23.40;15.43;;;;;;;13.95;32.09;102250.71;1781109;79;20840;-74
2022/02/14 09:39:34;;;;;;;26.35;19.07;;;;;;;14.19;32.22;102246.87;1780869;80;20919;-76
2022/02/14 09:42:01;;;;;;;30.95;23.42;;;;;;;14.50;31.87;102240.92;1781009;79;20967;-76
2022/02/14 09:44:28;;;;;;;46.73;24.55;;;;;;;14.76;30.84;102244.04;1744017;82;21334;-75
2022/02/14 09:46:57;;;;;;;33.42;20.82;;;;;;;14.96;30.63;102242.16;1743638;81;21999;-75
2022/02/14 09:49:24;;;;;;;34.33;21.97;;;;;;;15.06;29.76;102234.14;1717453;83;20929;-76
2022/02/14 09:51:56;;;;;;;41.80;24.63;;;;;;;15.11;30.07;102234.74;1780981;80;21002;-73
2022/02/14 09:54:24;;;;;;;37.75;21.52;;;;;;;15.24;29.79;102229.66;1780761;79;20934;-75
2022/02/14 09:56:52;;;;;;;41.53;24.72;;;;;;;15.41;29.39;102215.54;1781051;80;20935;-74
2022/02/14 09:59:18;;;;;;;51.53;30.23;;;;;;;15.61;29.53;102219.25;1780882;80;21117;-74
2022/02/14 10:01:45;;;;;;;53.70;29.12;;;;;;;15.74;28.68;102216.81;1743941;81;21453;-73
2022/02/14 10:04:12;;;;;;;56.53;30.95;;;;;;;15.83;28.27;102212.33;1717511;83;20992;-73
2022/02/14 10:06:41;;;;;;;68.78;38.33;;;;;;;15.77;28.48;102210.50;1780786;79;20871;-74
2022/02/14 10:09:15;;;;;;;71.17;40.90;;;;;;;15.67;28.16;102211.42;1743685;81;21492;-74
2022/02/14 10:12:09;;;;;;;81.50;47.05;;;;;;;15.53;28.32;102205.59;1743505;82;21167;-75
2022/02/14 10:14:36;;;;;;;97.05;54.60;;;;;;;15.52;28.59;102207.87;1717328;82;20901;-77
2022/02/14 10:17:12;;;;;;;97.02;54.18;;;;;;;15.74;28.11;102204.91;1780695;79;20880;-74
2022/02/14 10:19:56;;;;;;;95.35;51.18;;;;;;;15.84;28.15;102201.27;1780787;80;20927;-78
2022/02/14 10:22:23;;;;;;;85.28;46.68;;;;;;;15.98;27.80;102200.47;1780723;79;20860;-77
2022/02/14 10:24:50;;;;;;;94.70;54.95;;;;;;;16.16;27.83;102194.10;1743803;82;21116;-78
2022/02/14 10:27:18;;;;;;;91.57;48.13;;;;;;;16.27;27.56;102191.67;1743696;82;20904;-77
2022/02/14 10:29:45;;;;;;;88.78;49.60;;;;;;;16.32;27.07;102186.98;1717525;83;20952;-75
2022/02/14 10:32:20;;;;;;;86.85;46.63;;;;;;;16.39;27.29;102183.50;1780763;80;21405;-78
2022/02/14 10:34:54;;;;;;;68.00;37.42;;;;;;;16.56;27.19;102178.05;1780993;80;21572;-78
2022/02/14 10:37:39;;;;;;;63.42;35.15;;;;;;;16.64;26.65;102175.41;1780874;80;21141;-77
2022/02/14 10:40:08;;;;;;;65.60;36.98;;;;;;;16.70;26.34;102167.94;1755478;79;20879;-79
2022/02/14 10:42:36;;;;;;;53.40;29.00;;;;;;;16.76;26.18;102166.23;1743689;82;20944;-81
2022/02/14 10:45:08;;;;;;;27.98;18.42;;;;;;;16.74;25.58;102164.16;1743762;81;21449;-78
2022/02/14 10:47:41;;;;;;;29.45;15.00;;;;;;;16.71;25.92;102166.13;1717434;83;20858;-77
2022/02/14 10:50:18;;;;;;;22.45;14.23;;;;;;;16.68;25.80;102157.05;1781083;80;21141;-76
2022/02/14 10:52:55;;;;;;;20.27;12.43;;;;;;;16.60;25.94;102154.86;1780251;79;20887;-79
2022/02/14 10:55:30;;;;;;;24.60;13.53;;;;;;;16.57;25.55;102158.55;1780843;79;21355;-77
2022/02/14 10:57:58;;;;;;;19.35;11.20;;;;;;;16.63;26.19;102149.39;1780731;79;21341;-78
2022/02/14 11:00:30;;;;;;;17.85;10.35;;;;;;;16.78;25.98;102143.60;1780782;80;20908;-76
2022/02/14 11:03:01;;;;;;;20.62;11.25;;;;;;;16.72;25.78;102151.95;1780730;79;21088;-85
2022/02/14 11:05:28;;;;;;;12.07;7.28;;;;;;;16.60;25.68;102138.97;1780747;79;20860;-75
2022/02/14 11:07:56;;;;;;;14.03;8.53;;;;;;;16.57;24.89;102137.36;1780777;80;20868;-76
2022/02/14 11:10:23;;;;;;;11.70;7.42;;;;;;;16.46;25.55;102134.52;1781051;79;21089;-74
2022/02/14 11:13:01;;;;;;;9.80;6.28;;;;;;;16.49;25.59;102129.50;1780809;80;21006;-74
2022/02/14 11:15:33;;;;;;;11.78;6.65;;;;;;;16.45;24.44;102124.88;1750877;80;20899;-74